createdAt,value
2022-10-16T00:01:48.511Z,100289.94
2022-10-16T00:04:15.775Z,100295.63
2022-10-16T00:06:43.285Z,100299.06
2022-10-16T00:09:10.040Z,100293.09
2022-10-16T00:11:39.916Z,100296.31
2022-10-16T00:14:09.115Z,100295.13
2022-10-16T00:16:36.930Z,100290.16
2022-10-16T00:19:04.387Z,100293.78
2022-10-16T00:21:32.405Z,100301.16
2022-10-16T00:24:17.811Z,100304.00
2022-10-16T00:26:45.545Z,100303.63
2022-10-16T00:29:12.703Z,100303.03
2022-10-16T00:31:39.522Z,100304.44
2022-10-16T00:34:07.026Z,100300.44
2022-10-16T00:36:36.044Z,100307.25
2022-10-16T00:39:03.853Z,100309.28
2022-10-16T00:41:31.782Z,100311.28
2022-10-16T00:43:59.715Z,100300.50
2022-10-16T00:46:37.036Z,100310.50
2022-10-16T00:49:04.803Z,100318.16
2022-10-16T00:51:38.228Z,100324.16
2022-10-16T00:54:08.748Z,100321.75
2022-10-16T00:56:35.681Z,100325.38
2022-10-16T00:59:07.808Z,100331.97
2022-10-16T01:01:34.670Z,100324.56
2022-10-16T01:04:03.535Z,100325.19
2022-10-16T01:06:57.367Z,100326.38
2022-10-16T01:09:34.412Z,100333.00
2022-10-16T01:12:11.031Z,100333.81
2022-10-16T01:14:44.551Z,100341.81
2022-10-16T01:17:34.392Z,100335.81
2022-10-16T01:20:08.735Z,100336.25
2022-10-16T01:22:41.916Z,100334.44
2022-10-16T01:25:36.797Z,100330.03
2022-10-16T01:28:05.903Z,100337.03
2022-10-16T01:30:34.233Z,100325.19
2022-10-16T01:33:28.565Z,100323.41
2022-10-16T01:36:09.483Z,100323.78
2022-10-16T01:38:39.868Z,100326.63
2022-10-16T01:41:13.118Z,100329.44
2022-10-16T01:43:45.150Z,100325.44
2022-10-16T01:46:14.866Z,100335.44
2022-10-16T01:48:42.008Z,100346.03
2022-10-16T01:51:16.726Z,100354.03
2022-10-16T01:53:46.810Z,100349.06
2022-10-16T01:56:15.464Z,100352.66
2022-10-16T01:58:45.252Z,100346.66
2022-10-16T02:03:44.805Z,100351.06
2022-10-16T02:06:11.407Z,100356.66
2022-10-16T02:08:42.022Z,100353.22
2022-10-16T02:11:08.952Z,100343.84
2022-10-16T02:13:39.409Z,100345.25
2022-10-16T02:16:06.315Z,100346.66
2022-10-16T02:18:36.752Z,100344.66
2022-10-16T02:21:09.151Z,100335.44
2022-10-16T02:23:44.294Z,100339.44
2022-10-16T02:26:14.164Z,100347.03
2022-10-16T02:28:47.311Z,100347.66
2022-10-16T02:31:15.402Z,100345.25
2022-10-16T02:33:44.285Z,100354.28
2022-10-16T02:36:11.607Z,100341.81
2022-10-16T02:38:40.416Z,100349.06
2022-10-16T02:41:07.456Z,100344.63
2022-10-16T02:43:34.984Z,100345.44
2022-10-16T02:46:03.617Z,100354.28
2022-10-16T02:48:31.026Z,100360.69
2022-10-16T02:50:59.854Z,100367.69
2022-10-16T02:53:28.590Z,100361.06
2022-10-16T02:55:55.407Z,100367.47
2022-10-16T02:58:23.477Z,100364.06
2022-10-16T03:00:50.159Z,100356.25
2022-10-16T03:03:17.189Z,100358.25
2022-10-16T03:05:47.508Z,100356.25
2022-10-16T03:08:15.141Z,100351.25
2022-10-16T03:10:42.477Z,100352.22
2022-10-16T03:13:10.858Z,100361.66
2022-10-16T03:15:37.707Z,100363.44
2022-10-16T03:18:04.863Z,100369.25
2022-10-16T03:20:32.779Z,100368.44
2022-10-16T03:22:59.778Z,100384.28
2022-10-16T03:25:27.790Z,100375.47
2022-10-16T03:27:55.220Z,100378.47
2022-10-16T03:30:22.782Z,100376.09
2022-10-16T03:32:49.555Z,100385.72
2022-10-16T03:35:18.392Z,100393.88
2022-10-16T03:37:45.104Z,100395.66
2022-10-16T03:40:12.486Z,100391.47
2022-10-16T03:42:39.403Z,100399.91
2022-10-16T03:45:08.456Z,100404.72
2022-10-16T03:47:35.735Z,100396.69
2022-10-16T03:50:04.507Z,100403.91
2022-10-16T03:52:31.454Z,100409.69
2022-10-16T03:54:58.665Z,100410.50
2022-10-16T03:57:26.529Z,100414.72
2022-10-16T03:59:53.715Z,100423.13
2022-10-16T04:02:20.801Z,100421.13
2022-10-16T04:04:47.929Z,100420.31
2022-10-16T04:07:15.939Z,100422.31
2022-10-16T04:09:43.058Z,100428.13
2022-10-16T04:12:10.810Z,100428.53
2022-10-16T04:14:37.732Z,100429.53
2022-10-16T04:17:04.697Z,100429.53
2022-10-16T04:19:31.762Z,100422.94
2022-10-16T04:21:59.515Z,100433.16
2022-10-16T04:24:27.262Z,100425.94
2022-10-16T04:26:54.082Z,100434.94
2022-10-16T04:29:21.852Z,100429.13
2022-10-16T04:31:48.863Z,100430.31
2022-10-16T04:34:16.129Z,100422.31
2022-10-16T04:36:43.385Z,100426.72
2022-10-16T04:39:11.430Z,100432.72
2022-10-16T04:41:38.716Z,100437.94
2022-10-16T04:44:05.714Z,100437.94
2022-10-16T04:46:32.984Z,100438.94
2022-10-16T04:49:00.974Z,100437.94
2022-10-16T04:51:28.815Z,100432.91
2022-10-16T04:53:56.832Z,100447.16
2022-10-16T04:56:23.885Z,100445.75
2022-10-16T04:58:53.407Z,100445.53
2022-10-16T05:01:44.658Z,100449.94
2022-10-16T05:04:13.163Z,100452.72
2022-10-16T05:06:39.868Z,100446.72
2022-10-16T05:11:59.170Z,100449.72
2022-10-16T05:14:26.001Z,100445.66
2022-10-16T05:16:52.915Z,100448.66
2022-10-16T05:19:27.177Z,100458.66
2022-10-16T05:21:55.493Z,100456.88
2022-10-16T05:24:24.531Z,100463.06
2022-10-16T05:27:35.322Z,100457.88
2022-10-16T05:30:02.783Z,100461.47
2022-10-16T05:32:30.022Z,100469.25
2022-10-16T05:34:57.893Z,100477.06
2022-10-16T05:37:25.241Z,100480.28
2022-10-16T05:39:52.865Z,100471.47
2022-10-16T05:42:22.973Z,100477.53
2022-10-16T05:44:49.507Z,100479.91
2022-10-16T05:47:17.715Z,100486.94
2022-10-16T05:49:48.741Z,100483.78
2022-10-16T05:52:15.972Z,100495.00
2022-10-16T05:54:43.124Z,100496.44
2022-10-16T05:57:10.623Z,100496.84
2022-10-16T05:59:37.956Z,100504.66
2022-10-16T06:02:05.415Z,100516.09
2022-10-16T06:04:32.776Z,100516.88
2022-10-16T06:07:03.086Z,100519.28
2022-10-16T06:09:30.659Z,100528.47
2022-10-16T06:11:58.557Z,100540.53
2022-10-16T06:14:25.865Z,100538.06
2022-10-16T06:16:54.703Z,100538.25
2022-10-16T06:19:21.537Z,100539.56
2022-10-16T06:21:48.997Z,100538.09
2022-10-16T06:27:08.809Z,100547.34
2022-10-16T06:29:36.749Z,100552.03
2022-10-16T06:32:03.886Z,100540.91
2022-10-16T06:34:32.415Z,100548.41
2022-10-16T06:37:00.111Z,100556.81
2022-10-16T06:39:27.527Z,100553.31
2022-10-16T06:41:55.403Z,100556.06
2022-10-16T06:44:25.041Z,100561.97
2022-10-16T06:46:52.440Z,100570.72
2022-10-16T06:49:23.869Z,100572.66
2022-10-16T06:51:50.916Z,100565.19
2022-10-16T06:54:19.341Z,100577.97
2022-10-16T06:56:46.168Z,100580.16
2022-10-16T06:59:12.859Z,100586.63
2022-10-16T07:02:04.662Z,100585.41
2022-10-16T07:04:31.480Z,100593.25
2022-10-16T07:07:02.505Z,100594.19
2022-10-16T07:09:33.282Z,100598.59
2022-10-16T07:12:03.090Z,100604.44
2022-10-16T07:14:31.617Z,100604.47
2022-10-16T07:16:58.399Z,100616.03
2022-10-16T07:19:28.375Z,100615.97
2022-10-16T07:21:58.587Z,100610.97
2022-10-16T07:24:27.231Z,100613.03
2022-10-16T07:26:54.518Z,100613.34
2022-10-16T07:29:22.787Z,100604.59
2022-10-16T07:31:51.021Z,100607.47
2022-10-16T07:34:19.351Z,100611.34
2022-10-16T07:36:48.694Z,100617.25
2022-10-16T07:39:15.697Z,100613.50
2022-10-16T07:41:45.159Z,100609.00
2022-10-16T07:44:12.922Z,100617.16
2022-10-16T07:46:39.799Z,100612.78
2022-10-16T07:49:07.059Z,100618.66
2022-10-16T07:51:34.517Z,100618.44
2022-10-16T07:54:02.942Z,100619.00
2022-10-16T07:56:32.442Z,100628.69
2022-10-16T07:58:59.051Z,100632.06
2022-10-16T08:01:26.828Z,100634.38
2022-10-16T08:03:55.656Z,100642.56
2022-10-16T08:06:27.622Z,100629.81
2022-10-16T08:08:56.580Z,100631.75
2022-10-16T08:11:24.856Z,100626.63
2022-10-16T08:13:52.055Z,100637.31
2022-10-16T08:16:20.147Z,100629.03
2022-10-16T08:18:47.902Z,100640.25
2022-10-16T08:21:20.276Z,100629.81
2022-10-16T08:23:53.079Z,100632.97
2022-10-16T08:26:26.855Z,100632.97
2022-10-16T08:28:54.131Z,100643.25
2022-10-16T08:31:21.479Z,100646.69
2022-10-16T08:33:50.268Z,100642.22
2022-10-16T08:36:18.150Z,100643.03
2022-10-16T08:38:50.796Z,100652.13
2022-10-16T08:41:32.412Z,100657.81
2022-10-16T08:44:20.114Z,100650.63
2022-10-16T08:47:08.306Z,100656.97
2022-10-16T08:49:39.522Z,100659.28
2022-10-16T08:52:14.251Z,100658.38
2022-10-16T08:54:48.272Z,100661.38
2022-10-16T08:57:21.342Z,100659.66
2022-10-16T08:59:52.548Z,100657.03
2022-10-16T09:02:38.491Z,100651.47
2022-10-16T09:05:05.921Z,100664.13
2022-10-16T09:07:57.619Z,100657.50
2022-10-16T09:10:28.062Z,100652.03
2022-10-16T09:13:05.897Z,100654.38
2022-10-16T09:15:35.268Z,100653.13
2022-10-16T09:18:06.029Z,100663.41
2022-10-16T09:21:01.016Z,100658.91
2022-10-16T09:23:38.412Z,100669.69
2022-10-16T09:26:13.005Z,100662.94
2022-10-16T09:28:41.649Z,100660.31
2022-10-16T09:31:15.205Z,100656.59
2022-10-16T09:33:43.298Z,100657.56
2022-10-16T09:36:11.029Z,100662.16
2022-10-16T09:38:38.185Z,100667.09
2022-10-16T09:41:18.077Z,100663.75
2022-10-16T09:43:51.565Z,100671.50
2022-10-16T09:46:34.251Z,100667.31
2022-10-16T09:49:02.359Z,100670.03
2022-10-16T09:54:27.863Z,100674.34
2022-10-16T09:57:05.003Z,100678.13
2022-10-16T09:59:33.350Z,100685.78
2022-10-16T10:02:04.923Z,100685.97
2022-10-16T10:05:01.530Z,100676.41
2022-10-16T10:07:39.615Z,100687.47
2022-10-16T10:10:07.339Z,100685.06
2022-10-16T10:12:39.138Z,100681.41
2022-10-16T10:15:08.663Z,100683.81
2022-10-16T10:17:46.761Z,100678.97
2022-10-16T10:20:23.616Z,100671.81
2022-10-16T10:22:53.675Z,100675.72
2022-10-16T10:25:25.545Z,100669.75
2022-10-16T10:27:59.383Z,100671.22
2022-10-16T10:31:09.235Z,100670.63
2022-10-16T10:33:46.425Z,100673.56
2022-10-16T10:36:31.955Z,100667.28
2022-10-16T10:39:05.187Z,100676.56
2022-10-16T10:41:35.583Z,100662.56
2022-10-16T10:44:05.345Z,100666.88
2022-10-16T10:47:07.580Z,100653.19
2022-10-16T10:49:49.139Z,100655.63
2022-10-16T10:52:36.159Z,100660.88
2022-10-16T10:55:14.662Z,100666.81
2022-10-16T11:00:52.537Z,100671.50
2022-10-16T11:03:37.729Z,100676.81
2022-10-16T11:06:05.510Z,100670.66
2022-10-16T11:08:44.400Z,100672.34
2022-10-16T11:11:16.953Z,100669.13
2022-10-16T11:13:56.450Z,100662.84
2022-10-16T11:16:42.853Z,100655.28
2022-10-16T11:19:16.831Z,100651.38
2022-10-16T11:21:49.969Z,100648.31
2022-10-16T11:24:16.688Z,100654.41
2022-10-16T11:26:45.241Z,100652.22
2022-10-16T11:29:16.593Z,100654.28
2022-10-16T11:31:54.223Z,100655.06
2022-10-16T11:34:24.464Z,100642.66
2022-10-16T11:36:51.428Z,100644.25
2022-10-16T11:39:45.156Z,100645.91
2022-10-16T11:42:12.049Z,100639.72
2022-10-16T11:44:46.713Z,100640.69
2022-10-16T11:47:39.679Z,100641.47
2022-10-16T11:50:18.609Z,100638.50
2022-10-16T11:52:51.387Z,100632.94
2022-10-16T11:58:18.437Z,100634.63
2022-10-16T12:01:05.050Z,100639.94
2022-10-16T12:03:40.096Z,100636.75
2022-10-16T12:06:26.459Z,100643.03
2022-10-16T12:11:45.269Z,100638.88
2022-10-16T12:14:12.201Z,100632.06
2022-10-16T12:16:40.118Z,100633.19
2022-10-16T12:19:14.086Z,100631.09
2022-10-16T12:21:41.231Z,100631.41
2022-10-16T12:24:21.194Z,100625.44
2022-10-16T12:26:49.022Z,100631.56
2022-10-16T12:29:31.390Z,100629.00
2022-10-16T12:31:58.752Z,100630.84
2022-10-16T12:34:45.512Z,100626.69
2022-10-16T12:37:20.967Z,100621.91
2022-10-16T12:39:49.104Z,100622.50
2022-10-16T12:42:25.015Z,100614.16
2022-10-16T12:47:52.301Z,100624.66
2022-10-16T12:50:31.995Z,100629.47
2022-10-16T12:53:00.751Z,100626.88
2022-10-16T12:55:28.521Z,100628.25
2022-10-16T12:58:12.954Z,100632.47
2022-10-16T13:01:06.437Z,100636.44
2022-10-16T13:03:49.891Z,100630.44
2022-10-16T13:06:38.990Z,100625.75
2022-10-16T13:09:31.399Z,100630.81
2022-10-16T13:11:59.659Z,100635.34
2022-10-16T13:14:45.355Z,100634.06
2022-10-16T13:17:13.118Z,100634.63
2022-10-16T13:19:46.434Z,100641.00
2022-10-16T13:22:31.573Z,100637.31
2022-10-16T13:25:15.005Z,100633.66
2022-10-16T13:28:18.614Z,100634.25
2022-10-16T13:30:52.711Z,100635.50
2022-10-16T13:33:33.316Z,100646.38
2022-10-16T13:36:01.235Z,100638.22
2022-10-16T13:38:33.117Z,100640.38
2022-10-16T13:41:02.409Z,100641.72
2022-10-16T13:43:32.578Z,100636.97
2022-10-16T13:46:01.885Z,100637.84
2022-10-16T13:48:29.033Z,100642.91
2022-10-16T13:51:03.134Z,100644.81
2022-10-16T13:53:34.378Z,100644.84
2022-10-16T13:56:03.913Z,100643.88
2022-10-16T13:58:30.793Z,100647.38
2022-10-16T14:01:01.232Z,100644.75
2022-10-16T14:03:31.364Z,100657.25
2022-10-16T14:06:02.627Z,100649.38
2022-10-16T14:08:30.981Z,100651.28
2022-10-16T14:10:59.996Z,100656.03
2022-10-16T14:13:30.847Z,100653.41
2022-10-16T14:15:59.717Z,100655.25
2022-10-16T14:18:33.330Z,100658.91
2022-10-16T14:21:04.726Z,100657.63
2022-10-16T14:23:34.244Z,100657.09
2022-10-16T14:26:28.108Z,100659.72
2022-10-16T14:29:14.771Z,100664.00
2022-10-16T14:31:43.618Z,100652.94
2022-10-16T14:34:25.934Z,100661.91
2022-10-16T14:36:53.314Z,100659.28
2022-10-16T14:39:21.773Z,100652.72
2022-10-16T14:41:58.149Z,100653.00
2022-10-16T14:44:29.836Z,100656.22
2022-10-16T14:46:56.980Z,100657.00
2022-10-16T14:49:25.260Z,100650.94
2022-10-16T14:51:53.091Z,100658.06
2022-10-16T14:54:21.787Z,100659.91
2022-10-16T14:56:55.148Z,100659.72
2022-10-16T14:59:31.407Z,100654.44
2022-10-16T15:01:58.616Z,100663.66
2022-10-16T15:04:26.069Z,100656.78
2022-10-16T15:07:17.477Z,100663.66
2022-10-16T15:09:49.297Z,100657.28
2022-10-16T15:12:17.715Z,100663.34
2022-10-16T15:14:48.539Z,100664.63
2022-10-16T15:17:17.453Z,100670.19
2022-10-16T15:19:51.124Z,100677.81
2022-10-16T15:22:18.301Z,100675.72
2022-10-16T15:24:46.556Z,100672.56
2022-10-16T15:27:13.356Z,100678.63
2022-10-16T15:29:41.662Z,100679.06
2022-10-16T15:32:10.503Z,100689.91
2022-10-16T15:34:37.415Z,100694.63
2022-10-16T15:37:06.334Z,100688.03
2022-10-16T15:39:37.797Z,100693.53
2022-10-16T15:42:09.772Z,100696.09
2022-10-16T15:44:36.350Z,100702.41
2022-10-16T15:47:32.022Z,100708.66
2022-10-16T15:50:00.151Z,100709.66
2022-10-16T15:52:27.649Z,100712.75
2022-10-16T15:54:55.304Z,100712.63
2022-10-16T15:57:23.093Z,100719.69
2022-10-16T15:59:49.913Z,100711.97
2022-10-16T16:02:17.871Z,100724.53
2022-10-16T16:04:45.853Z,100721.50
2022-10-16T16:07:13.205Z,100724.88
2022-10-16T16:09:40.179Z,100725.81
2022-10-16T16:12:11.415Z,100729.09
2022-10-16T16:14:38.967Z,100731.88
2022-10-16T16:17:08.274Z,100733.66
2022-10-16T16:19:35.860Z,100737.00
2022-10-16T16:22:09.447Z,100731.13
2022-10-16T16:24:41.445Z,100736.78
2022-10-16T16:27:08.810Z,100737.75
2022-10-16T16:29:36.446Z,100739.25
2022-10-16T16:32:03.678Z,100745.69
2022-10-16T16:34:32.673Z,100758.19
2022-10-16T16:36:59.264Z,100758.63
2022-10-16T16:39:27.124Z,100767.69
2022-10-16T16:41:56.233Z,100759.13
2022-10-16T16:44:23.984Z,100760.66
2022-10-16T16:46:51.224Z,100765.59
2022-10-16T16:49:18.247Z,100763.97
2022-10-16T16:51:45.493Z,100765.72
2022-10-16T16:54:14.186Z,100767.78
2022-10-16T16:56:44.995Z,100768.22
2022-10-16T16:59:16.521Z,100778.19
2022-10-16T17:01:44.789Z,100777.63
2022-10-16T17:04:12.512Z,100780.75
2022-10-16T17:06:41.686Z,100784.97
2022-10-16T17:09:10.859Z,100789.09
2022-10-16T17:11:37.762Z,100784.75
2022-10-16T17:14:05.602Z,100798.91
2022-10-16T17:16:34.763Z,100790.28
2022-10-16T17:19:08.503Z,100810.50
2022-10-16T17:21:36.090Z,100808.56
2022-10-16T17:24:03.684Z,100808.22
2022-10-16T17:26:31.310Z,100808.69
2022-10-16T17:29:01.358Z,100813.59
2022-10-16T17:31:30.166Z,100817.72
2022-10-16T17:33:58.964Z,100822.41
2022-10-16T17:36:26.573Z,100817.03
2022-10-16T17:38:53.673Z,100818.50
2022-10-16T17:41:22.434Z,100817.97
2022-10-16T17:43:49.940Z,100827.31
2022-10-16T17:46:17.945Z,100825.59
2022-10-16T17:48:47.074Z,100835.97
2022-10-16T17:51:15.714Z,100846.59
2022-10-16T17:53:42.913Z,100846.22
2022-10-16T17:56:12.885Z,100847.16
2022-10-16T17:58:51.458Z,100846.78
2022-10-16T18:01:27.039Z,100853.28
2022-10-16T18:03:56.438Z,100852.72
2022-10-16T18:06:48.335Z,100863.88
2022-10-16T18:09:18.756Z,100858.63
2022-10-16T18:11:51.165Z,100865.00
2022-10-16T18:14:18.278Z,100873.31
2022-10-16T18:16:45.336Z,100871.59
2022-10-16T18:19:14.271Z,100875.25
2022-10-16T18:21:41.403Z,100885.97
2022-10-16T18:24:09.906Z,100881.16
2022-10-16T18:26:36.481Z,100883.44
2022-10-16T18:29:05.805Z,100875.19
2022-10-16T18:31:35.785Z,100880.06
2022-10-16T18:34:29.699Z,100888.13
2022-10-16T18:36:57.920Z,100892.06
2022-10-16T18:39:25.153Z,100897.56
2022-10-16T18:41:55.194Z,100888.78
2022-10-16T18:44:23.396Z,100896.13
2022-10-16T18:46:52.538Z,100894.19
2022-10-16T18:49:24.385Z,100907.34
2022-10-16T18:51:56.434Z,100906.97
2022-10-16T18:54:25.391Z,100910.69
2022-10-16T18:56:53.128Z,100911.13
2022-10-16T18:59:21.347Z,100909.22
2022-10-16T19:01:49.543Z,100909.25
2022-10-16T19:04:19.437Z,100916.34
2022-10-16T19:06:49.790Z,100915.41
2022-10-16T19:09:17.485Z,100923.72
2022-10-16T19:11:46.169Z,100923.53
2022-10-16T19:14:15.065Z,100920.75
2022-10-16T19:16:43.129Z,100925.59
2022-10-16T19:19:15.431Z,100923.59
2022-10-16T19:21:42.403Z,100931.09
2022-10-16T19:24:12.543Z,100932.75
2022-10-16T19:26:42.531Z,100940.22
2022-10-16T19:29:12.190Z,100933.00
2022-10-16T19:31:39.450Z,100936.25
2022-10-16T19:34:07.615Z,100939.06
2022-10-16T19:36:35.918Z,100942.50
2022-10-16T19:39:05.555Z,100950.56
2022-10-16T19:41:33.900Z,100957.03
2022-10-16T19:44:05.447Z,100961.09
2022-10-16T19:46:34.111Z,100964.09
2022-10-16T19:49:02.898Z,100962.53
2022-10-16T19:51:31.020Z,100966.19
2022-10-16T19:54:00.571Z,100966.56
2022-10-16T19:56:32.974Z,100969.00
2022-10-16T19:59:20.407Z,100968.81
2022-10-16T20:01:48.480Z,100975.47
2022-10-16T20:04:40.134Z,100967.47
2022-10-16T20:07:12.875Z,100980.34
2022-10-16T20:09:40.900Z,100981.34
2022-10-16T20:12:08.892Z,100981.97
2022-10-16T20:14:39.538Z,100977.97
2022-10-16T20:17:09.660Z,100993.22
2022-10-16T20:19:37.580Z,101001.69
2022-10-16T20:22:04.571Z,101004.09
2022-10-16T20:24:36.181Z,101004.50
2022-10-16T20:27:03.799Z,101010.94
2022-10-16T20:29:32.311Z,101006.53
2022-10-16T20:31:59.300Z,101007.31
2022-10-16T20:34:28.096Z,101009.34
2022-10-16T20:36:56.481Z,101009.31
2022-10-16T20:39:24.141Z,101010.53
2022-10-16T20:42:08.119Z,101022.00
2022-10-16T20:44:41.243Z,101015.34
2022-10-16T20:47:09.514Z,101018.38
2022-10-16T20:50:01.384Z,101019.19
2022-10-16T20:52:35.639Z,101026.59
2022-10-16T20:55:11.356Z,101031.81
2022-10-16T20:57:44.193Z,101040.66
2022-10-16T21:00:13.349Z,101041.47
2022-10-16T21:02:42.084Z,101041.81
2022-10-16T21:05:09.205Z,101048.88
2022-10-16T21:07:37.921Z,101041.44
2022-10-16T21:10:07.128Z,101040.03
2022-10-16T21:12:37.015Z,101050.06
2022-10-16T21:15:15.842Z,101052.84
2022-10-16T21:17:55.811Z,101054.47
2022-10-16T21:20:27.084Z,101053.88
2022-10-16T21:22:55.477Z,101056.69
2022-10-16T21:25:22.206Z,101032.13
2022-10-16T21:27:49.250Z,101045.41
2022-10-16T21:30:16.870Z,101044.81
2022-10-16T21:32:43.639Z,101042.97
2022-10-16T21:35:11.391Z,101050.56
2022-10-16T21:37:38.617Z,101047.16
2022-10-16T21:40:08.841Z,101050.56
2022-10-16T21:42:35.870Z,101055.78
2022-10-16T21:45:03.661Z,101053.34
2022-10-16T21:47:35.148Z,101051.13
2022-10-16T21:50:05.479Z,101056.91
2022-10-16T21:52:33.449Z,101062.56
2022-10-16T21:55:03.805Z,101058.50
2022-10-16T21:57:56.909Z,101063.31
2022-10-16T22:00:27.319Z,101067.09
2022-10-16T22:02:59.114Z,101070.91
2022-10-16T22:05:26.236Z,101064.09
2022-10-16T22:07:55.307Z,101068.84
2022-10-16T22:10:24.259Z,101062.25
2022-10-16T22:12:57.574Z,101072.25
2022-10-16T22:15:24.883Z,101065.22
2022-10-16T22:17:52.844Z,101070.38
2022-10-16T22:20:21.046Z,101072.41
2022-10-16T22:22:50.923Z,101079.97
2022-10-16T22:25:17.669Z,101088.19
2022-10-16T22:27:45.285Z,101089.78
2022-10-16T22:30:12.477Z,101082.97
2022-10-16T22:32:40.146Z,101079.16
2022-10-16T22:35:07.305Z,101080.72
2022-10-16T22:37:35.836Z,101086.69
2022-10-16T22:40:02.818Z,101086.91
2022-10-16T22:42:30.980Z,101092.31
2022-10-16T22:44:58.296Z,101084.25
2022-10-16T22:47:27.508Z,101082.66
2022-10-16T22:49:55.867Z,101082.66
2022-10-16T22:52:23.931Z,101089.00
2022-10-16T22:54:50.560Z,101093.81
2022-10-16T22:57:19.692Z,101091.81
2022-10-16T22:59:47.209Z,101100.84
2022-10-16T23:02:14.093Z,101096.19
2022-10-16T23:04:41.148Z,101108.22
2022-10-16T23:07:07.961Z,101098.53
2022-10-16T23:09:36.202Z,101104.75
2022-10-16T23:12:02.930Z,101107.16
2022-10-16T23:14:31.143Z,101100.13
2022-10-16T23:16:58.114Z,101110.75
2022-10-16T23:19:25.369Z,101117.34
2022-10-16T23:21:53.242Z,101111.75
2022-10-16T23:24:20.952Z,101117.16
2022-10-16T23:27:14.466Z,101118.53
2022-10-16T23:29:42.587Z,101113.69
2022-10-16T23:32:09.683Z,101114.31
2022-10-16T23:34:38.466Z,101114.66
2022-10-16T23:37:06.658Z,101113.84
2022-10-16T23:39:36.056Z,101116.69
2022-10-16T23:42:02.756Z,101118.47
2022-10-16T23:44:32.683Z,101114.00
2022-10-16T23:47:23.755Z,101109.34
2022-10-16T23:49:53.386Z,101109.34
2022-10-16T23:52:21.245Z,101099.47
2022-10-16T23:54:48.225Z,101105.47
2022-10-16T23:57:15.187Z,101103.50
2022-10-16T23:59:43.588Z,101109.88
